Airfield :
LOGIN :

Register | Disclaimer

   EN    FR    IT 

 










Legend :    VFR   Marginal VFR   IFR   Intensive IFR   Very Intensive IFR
Visi :
Ceiling :
>= 8 km
>= 3000ft
5 to 8 km
1000 to 3000 ft
1500m to 5 km
500 to 1000 ft
800 to 1500m
200 to 500 ft
< 800m
< 200 ft
Symbols :   Thunderstorms  Fog  Heavy snow  Heavy precipitations  Wind > 20 kt
SIGMETs :     Misc.  Thunderstorms  Icing  Turbulence  Mountain Waves  Volcanic Ashes






- Airport Elevation : 197 ft
- IATA code : XOG


LFMO - Orange

CURRENT METAR :
  • 101330Z AUTO 35019KT CAVOK 09/00 Q1023 BECMG 36025G35KT

EXPIRED METARs :
  • 101300Z AUTO 34027G38KT CAVOK 09/00 Q1022 NOSIG
  • 101230Z AUTO 33020G32KT 300V360 CAVOK 09/01 Q1023 NOSIG
  • 101200Z AUTO 34024G35KT 300V360 CAVOK 09/00 Q1023 TEMPO 36030G45KT
  • 101130Z AUTO 35022KT CAVOK 09/00 Q1023 BECMG 36025G35KT
  • 101100Z AUTO 36023G39KT 330V030 CAVOK 09/01 Q1023 NOSIG

TAF TAF LFMO
Valid from the 10 at 09:00 until the 11 at 09:00 UTC


100800Z 1009/1109 36030G45KT CAVOK
BECMG 1013/1015 36025G35KT
BECMG 1019/1021 35012KT
BECMG 1021/1023 VRB02KT



MET'MAP, your aeronautical weather chart ! - Copyright ORBIFLY December 2007 - Disclaimer

ORBIFLY MET'MAP TEAM :

Programming & Development : Alexandra Zaïnal
Concept & original design : Baudouin d'Aumeries
Assistance for programming : Marc-Olivier Méhu
Technical & hardware support : Manuel Goepfert

Contact : metmap@orbifly.com




SOURCES & CREDITS :

   NOAA